Time;durP1;ratioP1;P1;durP2;ratioP2;P2;SDS_P1;SDS_P2;PMS_P1;PMS_P2;Temp;Humidity;BMP_temperature;BMP_pressure;BME280_temperature;BME280_humidity;BME280_pressure;Samples;Min_cycle;Max_cycle;Signal;HPM_P1;HPM_P2
2021/09/14 00:00:45;;;;;;;8.45;3.80;;;;;;;;;;5050913;28;20450;-68
2021/09/14 00:03:11;;;;;;;6.50;3.40;;;;;;;;;;5051230;28;20379;-69
2021/09/14 00:05:38;;;;;;;7.07;3.58;;;;;;;;;;5050728;28;20040;-69
2021/09/14 00:08:04;;;;;;;6.80;3.30;;;;;;;;;;5050397;28;20033;-69
2021/09/14 00:10:30;;;;;;;10.70;4.07;;;;;;;;;;5050798;28;20032;-69
2021/09/14 00:15:54;;;;;;;9.00;3.88;;;;;;;;;;5111200;27;20388;-68
2021/09/14 00:20:14;;;;;;;8.27;3.97;;;;;;;;;;5111548;27;20405;-69
2021/09/14 00:23:39;;;;;;;7.40;3.33;;;;;;;;;;5111524;27;20517;-68
2021/09/14 00:26:05;;;;;;;7.53;3.85;;;;;;;;;;5111494;28;20077;-68
2021/09/14 00:28:31;;;;;;;6.68;3.25;;;;;;;;;;5110833;28;20039;-68
2021/09/14 00:31:33;;;;;;;7.80;4.07;;;;;;;;;;5111622;27;21016;-68
2021/09/14 00:33:59;;;;;;;7.30;3.38;;;;;;;;;;5111408;28;20062;-68
2021/09/14 00:36:25;;;;;;;8.13;4.10;;;;;;;;;;5111099;28;20024;-70
2021/09/14 00:38:51;;;;;;;9.77;4.18;;;;;;;;;;5111261;28;20027;-71
2021/09/14 00:41:36;;;;;;;7.95;4.68;;;;;;;;;;5111503;27;20310;-69
2021/09/14 00:44:03;;;;;;;9.13;4.15;;;;;;;;;;5110927;28;20031;-69
2021/09/14 00:47:19;;;;;;;7.82;4.05;;;;;;;;;;5111354;27;20520;-71
2021/09/14 00:49:45;;;;;;;9.77;3.50;;;;;;;;;;5111171;28;20055;-68
2021/09/14 00:52:11;;;;;;;9.63;4.07;;;;;;;;;;5110042;28;20027;-69
2021/09/14 00:54:38;;;;;;;8.90;3.63;;;;;;;;;;5110021;28;20023;-69
2021/09/14 01:01:06;;;;;;;8.57;3.88;;;;;;;;;;5111416;27;20504;-69
2021/09/14 01:03:32;;;;;;;6.80;3.42;;;;;;;;;;5110969;28;20028;-69
2021/09/14 01:05:59;;;;;;;7.68;3.72;;;;;;;;;;5110006;28;20024;-69
2021/09/14 01:10:13;;;;;;;7.50;3.72;;;;;;;;;;5112169;27;20867;-68
2021/09/14 01:12:58;;;;;;;6.20;3.28;;;;;;;;;;5112222;27;20408;-68
2021/09/14 01:15:25;;;;;;;8.00;3.35;;;;;;;;;;5111322;28;20038;-69
2021/09/14 01:17:51;;;;;;;5.72;3.13;;;;;;;;;;5110908;28;20422;-69
2021/09/14 01:25:01;;;;;;;6.65;3.30;;;;;;;;;;5111028;27;20396;-68
2021/09/14 01:27:37;;;;;;;5.38;3.17;;;;;;;;;;5112185;27;20525;-68
2021/09/14 01:31:11;;;;;;;5.95;3.03;;;;;;;;;;5091606;27;20397;-69
2021/09/14 01:33:37;;;;;;;9.27;3.92;;;;;;;;;;5090636;28;20032;-69
2021/09/14 01:36:49;;;;;;;6.03;2.92;;;;;;;;;;5111825;27;20404;-71
2021/09/14 01:41:08;;;;;;;8.55;3.97;;;;;;;;;;5111706;27;20393;-69
2021/09/14 01:43:35;;;;;;;7.07;3.42;;;;;;;;;;5111384;28;20028;-70
2021/09/14 01:46:02;;;;;;;6.78;3.40;;;;;;;;;;5109583;28;20024;-71
2021/09/14 01:50:27;;;;;;;6.60;3.10;;;;;;;;;;5111571;27;20513;-71
2021/09/14 01:52:54;;;;;;;9.02;3.20;;;;;;;;;;5109677;28;20055;-71
2021/09/14 01:55:21;;;;;;;6.00;3.20;;;;;;;;;;5111319;28;20016;-69
2021/09/14 01:57:49;;;;;;;7.72;3.40;;;;;;;;;;5111548;28;20042;-69
2021/09/14 02:00:20;;;;;;;5.18;3.10;;;;;;;;;;5110813;28;20383;-69
2021/09/14 02:05:37;;;;;;;6.07;3.15;;;;;;;;;;5111122;28;20388;-69
2021/09/14 03:03:26;;;;;;;5.32;3.08;;;;;;;;;;5098952;27;1601326;-69
2021/09/14 03:07:17;;;;;;;6.53;2.78;;;;;;;;;;5111958;27;20516;-69
2021/09/14 03:10:57;;;;;;;5.57;3.38;;;;;;;;;;5111081;27;20405;-69
2021/09/14 03:13:26;;;;;;;8.15;2.95;;;;;;;;;;5111279;28;20114;-69
2021/09/14 03:15:52;;;;;;;10.40;3.03;;;;;;;;;;5111326;28;20027;-69
2021/09/14 03:18:18;;;;;;;6.90;3.42;;;;;;;;;;5110913;28;20549;-70
2021/09/14 03:20:45;;;;;;;7.28;3.10;;;;;;;;;;5111195;28;20032;-69
2021/09/14 03:23:11;;;;;;;6.30;3.35;;;;;;;;;;5111172;28;20094;-70
2021/09/14 03:25:37;;;;;;;5.32;2.80;;;;;;;;;;5109406;28;20024;-70
2021/09/14 03:28:03;;;;;;;5.57;2.67;;;;;;;;;;5109839;28;20389;-69
2021/09/14 03:30:29;;;;;;;5.75;2.83;;;;;;;;;;5110938;28;20089;-69
2021/09/14 03:32:55;;;;;;;4.35;2.47;;;;;;;;;;5110577;28;20080;-69
2021/09/14 03:37:21;;;;;;;5.50;3.10;;;;;;;;;;5112037;27;20912;-68
2021/09/14 03:39:47;;;;;;;6.30;3.28;;;;;;;;;;5111035;28;20381;-68
2021/09/14 03:47:13;;;;;;;5.43;2.72;;;;;;;;;;5111021;27;20396;-68
2021/09/14 03:55:00;;;;;;;10.32;4.97;;;;;;;;;;5112223;27;20485;-69
2021/09/14 03:57:26;;;;;;;10.48;4.90;;;;;;;;;;5111399;28;20032;-69
2021/09/14 03:59:52;;;;;;;4.85;3.25;;;;;;;;;;5110963;28;20020;-69
2021/09/14 04:02:31;;;;;;;9.45;3.55;;;;;;;;;;5111389;28;20365;-73
2021/09/14 04:10:20;;;;;;;6.30;3.08;;;;;;;;;;5112106;27;20396;-71
2021/09/14 04:15:30;;;;;;;7.45;3.17;;;;;;;;;;5043427;27;2712950;-71
2021/09/14 04:17:56;;;;;;;7.68;3.03;;;;;;;;;;5111346;28;20077;-71
2021/09/14 04:20:43;;;;;;;8.52;3.95;;;;;;;;;;5111279;27;20416;-71
2021/09/14 04:23:09;;;;;;;6.65;3.33;;;;;;;;;;5111410;28;20023;-70
2021/09/14 04:28:14;;;;;;;4.55;2.88;;;;;;;;;;5111447;27;20442;-70
2021/09/14 04:32:08;;;;;;;6.28;2.92;;;;;;;;;;5111911;27;20908;-70
2021/09/14 04:34:34;;;;;;;8.57;3.20;;;;;;;;;;5111203;28;20115;-70
2021/09/14 04:37:00;;;;;;;5.03;2.90;;;;;;;;;;5111276;28;20020;-70
2021/09/14 04:39:27;;;;;;;7.30;3.45;;;;;;;;;;5111293;28;20024;-70
2021/09/14 04:45:16;;;;;;;5.80;3.10;;;;;;;;;;5112212;27;20896;-68
2021/09/14 04:47:42;;;;;;;10.88;3.78;;;;;;;;;;5111431;28;20557;-70
2021/09/14 04:50:08;;;;;;;9.93;4.07;;;;;;;;;;5110918;28;20020;-70
2021/09/14 04:52:34;;;;;;;7.10;3.53;;;;;;;;;;5111302;28;20050;-70
2021/09/14 04:55:01;;;;;;;6.53;3.50;;;;;;;;;;5111210;28;20035;-70
2021/09/14 04:58:33;;;;;;;7.22;3.38;;;;;;;;;;5112146;27;20490;-71
2021/09/14 05:00:59;;;;;;;6.32;3.33;;;;;;;;;;5110054;28;20028;-70
2021/09/14 05:05:25;;;;;;;6.80;3.28;;;;;;;;;;5111879;27;20463;-68
2021/09/14 05:07:51;;;;;;;10.43;3.45;;;;;;;;;;5109873;28;20024;-76
2021/09/14 05:10:17;;;;;;;10.07;4.70;;;;;;;;;;5110878;28;20027;-72
2021/09/14 05:14:24;;;;;;;8.13;3.28;;;;;;;;;;5111562;27;20900;-75
2021/09/14 05:16:50;;;;;;;8.00;3.72;;;;;;;;;;5106696;28;20404;-72
2021/09/14 05:19:33;;;;;;;8.05;3.70;;;;;;;;;;5070647;28;20399;-74
2021/09/14 05:22:22;;;;;;;7.13;3.60;;;;;;;;;;5110683;27;20412;-74
2021/09/14 05:26:06;;;;;;;5.65;3.20;;;;;;;;;;5105478;27;20318;-75
2021/09/14 05:28:33;;;;;;;7.05;3.47;;;;;;;;;;5089177;28;20032;-77
2021/09/14 05:31:22;;;;;;;12.80;3.30;;;;;;;;;;5109952;27;20388;-75
2021/09/14 05:35:44;;;;;;;7.63;3.45;;;;;;;;;;5070183;28;20399;-75
2021/09/14 05:38:11;;;;;;;7.32;3.35;;;;;;;;;;5068681;28;20029;-76
2021/09/14 05:41:51;;;;;;;10.23;3.80;;;;;;;;;;5109867;27;20389;-78
2021/09/14 05:44:17;;;;;;;4.93;2.85;;;;;;;;;;5109370;28;20015;-78
2021/09/14 05:46:44;;;;;;;8.15;2.83;;;;;;;;;;5107755;28;20031;-77
2021/09/14 05:49:10;;;;;;;6.40;2.67;;;;;;;;;;5110554;28;20026;-76
2021/09/14 05:51:37;;;;;;;5.15;2.83;;;;;;;;;;5109343;28;20026;-77
2021/09/14 05:54:03;;;;;;;7.00;3.50;;;;;;;;;;5109551;28;20016;-78
2021/09/14 05:57:20;;;;;;;6.82;2.95;;;;;;;;;;5110345;27;20396;-79
2021/09/14 05:59:46;;;;;;;6.40;3.40;;;;;;;;;;5109729;28;20024;-76
2021/09/14 06:02:12;;;;;;;8.73;3.25;;;;;;;;;;5092908;28;20421;-74
2021/09/14 06:07:42;;;;;;;5.72;2.88;;;;;;;;;;5068555;27;20415;-78
2021/09/14 06:10:08;;;;;;;4.93;2.42;;;;;;;;;;5065556;28;20043;-76
2021/09/14 06:12:34;;;;;;;7.43;2.53;;;;;;;;;;5068006;28;20020;-77
2021/09/14 06:15:01;;;;;;;6.07;2.78;;;;;;;;;;5069062;28;20453;-74
2021/09/14 06:17:27;;;;;;;4.65;3.03;;;;;;;;;;5067769;28;20035;-75
2021/09/14 06:20:33;;;;;;;7.90;4.88;;;;;;;;;;5108231;27;20419;-76
2021/09/14 06:23:49;;;;;;;6.90;3.70;;;;;;;;;;5109414;27;20469;-77
2021/09/14 06:26:15;;;;;;;8.40;4.53;;;;;;;;;;5094441;28;20032;-77
2021/09/14 06:28:41;;;;;;;8.85;4.15;;;;;;;;;;5087490;28;20040;-75
2021/09/14 06:31:08;;;;;;;6.57;3.40;;;;;;;;;;5088455;28;20024;-75
2021/09/14 06:36:24;;;;;;;4.88;2.85;;;;;;;;;;5110227;27;20184;-79
2021/09/14 06:38:51;;;;;;;4.93;2.40;;;;;;;;;;5110486;28;20388;-75
2021/09/14 06:41:17;;;;;;;5.32;2.47;;;;;;;;;;5126088;28;20475;-75
2021/09/14 06:43:43;;;;;;;5.28;2.58;;;;;;;;;;5092830;28;20042;-76
2021/09/14 06:46:09;;;;;;;9.20;3.17;;;;;;;;;;5109516;28;20031;-75
2021/09/14 06:48:35;;;;;;;9.38;3.28;;;;;;;;;;5085152;28;20020;-76
2021/09/14 06:51:02;;;;;;;7.05;2.97;;;;;;;;;;5108821;28;20495;-79
2021/09/14 06:53:29;;;;;;;5.95;2.90;;;;;;;;;;5108374;28;20020;-73
2021/09/14 06:56:57;;;;;;;7.20;3.13;;;;;;;;;;5108385;27;20461;-77
2021/09/14 07:00:26;;;;;;;9.20;3.20;;;;;;;;;;5110752;27;20391;-77
2021/09/14 07:02:52;;;;;;;6.63;3.53;;;;;;;;;;5110145;28;20028;-77
2021/09/14 07:05:19;;;;;;;6.05;3.30;;;;;;;;;;5110663;28;20024;-75
2021/09/14 07:07:45;;;;;;;6.05;3.00;;;;;;;;;;5110807;28;20016;-76
2021/09/14 07:10:11;;;;;;;7.25;3.05;;;;;;;;;;5109681;28;20077;-77
2021/09/14 07:12:38;;;;;;;13.63;3.40;;;;;;;;;;5108760;28;20483;-76
2021/09/14 07:15:04;;;;;;;9.00;3.30;;;;;;;;;;5110049;28;20028;-76
2021/09/14 07:18:53;;;;;;;5.38;3.13;;;;;;;;;;5109984;27;20421;-73
2021/09/14 07:21:20;;;;;;;9.65;3.38;;;;;;;;;;5092659;28;20078;-74
2021/09/14 07:23:46;;;;;;;10.20;4.43;;;;;;;;;;5086024;28;20028;-72
2021/09/14 07:26:12;;;;;;;10.27;4.25;;;;;;;;;;5088869;28;20025;-73
2021/09/14 07:30:33;;;;;;;7.88;3.78;;;;;;;;;;5028737;28;20465;-73
2021/09/14 07:33:49;;;;;;;10.52;5.22;;;;;;;;;;5130297;27;20126;-74
2021/09/14 07:36:15;;;;;;;7.50;3.10;;;;;;;;;;5110586;28;20490;-74
2021/09/14 07:38:43;;;;;;;8.07;3.63;;;;;;;;;;5109799;28;20019;-72
2021/09/14 07:41:09;;;;;;;9.23;3.00;;;;;;;;;;5091479;28;20430;-73
2021/09/14 07:43:35;;;;;;;7.13;3.15;;;;;;;;;;5108719;28;20028;-73
2021/09/14 07:46:01;;;;;;;5.60;2.90;;;;;;;;;;5109080;28;20023;-74
2021/09/14 07:48:28;;;;;;;8.73;4.05;;;;;;;;;;5110044;28;20119;-81
2021/09/14 07:50:54;;;;;;;8.65;3.90;;;;;;;;;;5109065;28;20020;-76
2021/09/14 07:53:20;;;;;;;11.43;4.28;;;;;;;;;;5108646;28;20658;-75
2021/09/14 07:55:46;;;;;;;6.15;3.42;;;;;;;;;;5109760;28;20031;-74
2021/09/14 07:58:12;;;;;;;8.55;3.40;;;;;;;;;;5109065;28;20055;-76
2021/09/14 08:00:38;;;;;;;6.82;3.60;;;;;;;;;;5088447;28;20016;-77
2021/09/14 08:03:05;;;;;;;6.78;3.30;;;;;;;;;;5088264;28;20337;-77
2021/09/14 08:05:31;;;;;;;6.50;3.50;;;;;;;;;;5106827;28;20084;-78
2021/09/14 08:08:07;;;;;;;8.40;3.13;;;;;;;;;;5109760;27;20412;-78
2021/09/14 08:10:34;;;;;;;6.57;2.92;;;;;;;;;;5109036;28;20024;-76
2021/09/14 08:13:00;;;;;;;5.93;3.03;;;;;;;;;;5125627;28;20110;-76
2021/09/14 08:16:52;;;;;;;10.93;3.88;;;;;;;;;;5050189;28;20421;-78
2021/09/14 08:19:18;;;;;;;6.80;3.03;;;;;;;;;;5050225;28;20546;-76
2021/09/14 08:21:44;;;;;;;6.60;3.08;;;;;;;;;;5050316;28;20061;-78
2021/09/14 08:24:11;;;;;;;6.20;3.05;;;;;;;;;;5050066;28;20513;-79
2021/09/14 08:26:38;;;;;;;9.35;3.22;;;;;;;;;;5048346;28;20018;-78
2021/09/14 08:29:05;;;;;;;9.95;3.10;;;;;;;;;;5049577;28;20083;-75
2021/09/14 08:31:31;;;;;;;7.60;3.10;;;;;;;;;;5049782;28;20378;-77
2021/09/14 08:33:57;;;;;;;5.90;2.92;;;;;;;;;;5049490;28;20363;-75
2021/09/14 08:36:24;;;;;;;9.38;3.00;;;;;;;;;;5050166;28;20029;-69
2021/09/14 08:38:51;;;;;;;6.93;3.03;;;;;;;;;;5048662;28;20056;-68
2021/09/14 08:41:18;;;;;;;16.83;3.78;;;;;;;;;;5049101;28;20025;-68
2021/09/14 08:43:46;;;;;;;9.02;3.58;;;;;;;;;;5049605;28;20025;-68
2021/09/14 08:46:13;;;;;;;6.57;3.38;;;;;;;;;;5049908;28;20056;-68
2021/09/14 08:48:39;;;;;;;5.75;2.72;;;;;;;;;;5049553;28;20029;-68
2021/09/14 08:51:06;;;;;;;8.65;3.20;;;;;;;;;;5049916;28;20028;-67
2021/09/14 08:53:34;;;;;;;10.07;2.72;;;;;;;;;;5050121;28;20350;-68
2021/09/14 08:56:00;;;;;;;8.95;2.80;;;;;;;;;;5048585;28;20029;-67
2021/09/14 08:58:27;;;;;;;8.57;3.55;;;;;;;;;;5049129;28;20111;-69
2021/09/14 09:00:53;;;;;;;7.13;3.20;;;;;;;;;;5048351;28;20028;-69
2021/09/14 09:03:30;;;;;;;6.30;3.45;;;;;;;;;;5048051;28;20035;-69
2021/09/14 09:05:59;;;;;;;7.82;3.97;;;;;;;;;;5047992;28;20547;-69
2021/09/14 09:08:26;;;;;;;6.05;3.00;;;;;;;;;;5047062;28;20029;-69
2021/09/14 09:11:06;;;;;;;6.05;2.78;;;;;;;;;;5047081;28;20091;-68
2021/09/14 09:13:34;;;;;;;4.57;2.42;;;;;;;;;;5048448;28;20017;-66
2021/09/14 09:16:00;;;;;;;6.38;2.97;;;;;;;;;;5047882;28;20044;-66
2021/09/14 09:18:27;;;;;;;7.28;3.00;;;;;;;;;;5048507;28;20044;-67
2021/09/14 09:21:00;;;;;;;4.82;2.70;;;;;;;;;;5048805;28;20025;-66
2021/09/14 09:23:26;;;;;;;11.48;3.28;;;;;;;;;;5047829;28;20021;-67
2021/09/14 09:26:04;;;;;;;7.43;2.85;;;;;;;;;;5048205;28;20017;-65
2021/09/14 09:28:30;;;;;;;6.45;2.80;;;;;;;;;;5032421;28;20025;-67
2021/09/14 09:30:58;;;;;;;5.75;2.70;;;;;;;;;;5032463;28;20017;-68
2021/09/14 09:33:25;;;;;;;5.82;3.45;;;;;;;;;;5032597;28;20689;-64
2021/09/14 09:35:52;;;;;;;4.72;2.30;;;;;;;;;;5032435;28;20071;-66
2021/09/14 09:38:18;;;;;;;5.40;2.80;;;;;;;;;;5032036;28;20048;-65
2021/09/14 09:40:44;;;;;;;5.43;2.88;;;;;;;;;;5032751;28;20100;-66
2021/09/14 09:43:12;;;;;;;4.85;2.33;;;;;;;;;;5032964;28;20052;-66
2021/09/14 09:45:42;;;;;;;7.72;2.90;;;;;;;;;;5032525;28;20405;-66
2021/09/14 09:48:09;;;;;;;7.25;2.50;;;;;;;;;;5031733;28;20128;-66
2021/09/14 09:50:37;;;;;;;6.50;2.92;;;;;;;;;;5031952;28;20021;-67
2021/09/14 09:53:04;;;;;;;5.22;2.53;;;;;;;;;;5032650;28;20025;-67
2021/09/14 09:55:32;;;;;;;9.32;2.63;;;;;;;;;;5033338;28;20103;-67
2021/09/14 09:57:59;;;;;;;6.18;2.88;;;;;;;;;;5033699;28;20013;-67
2021/09/14 10:00:26;;;;;;;9.32;2.95;;;;;;;;;;5034976;28;20155;-67
2021/09/14 10:02:53;;;;;;;4.20;2.45;;;;;;;;;;5034020;28;20034;-68
2021/09/14 10:05:22;;;;;;;5.30;2.45;;;;;;;;;;5032726;28;20022;-68
2021/09/14 10:07:49;;;;;;;4.35;2.40;;;;;;;;;;5033977;28;20498;-68
2021/09/14 10:10:15;;;;;;;5.75;2.67;;;;;;;;;;5034614;28;20401;-69
2021/09/14 10:12:42;;;;;;;5.30;2.40;;;;;;;;;;5034335;28;20029;-68
2021/09/14 10:15:09;;;;;;;5.07;2.58;;;;;;;;;;5034221;28;20471;-68
2021/09/14 10:18:04;;;;;;;5.93;2.90;;;;;;;;;;5034831;28;20032;-69
2021/09/14 10:20:37;;;;;;;7.38;2.38;;;;;;;;;;5029145;28;20120;-68
2021/09/14 10:23:06;;;;;;;7.15;2.38;;;;;;;;;;5035220;28;20080;-69
2021/09/14 10:25:32;;;;;;;4.78;2.00;;;;;;;;;;5035077;28;20021;-67
2021/09/14 10:28:12;;;;;;;8.10;2.55;;;;;;;;;;5034705;28;20485;-68
2021/09/14 10:30:38;;;;;;;4.72;2.67;;;;;;;;;;5035002;28;20028;-69
2021/09/14 10:33:05;;;;;;;5.18;2.00;;;;;;;;;;5033994;28;20026;-68
2021/09/14 10:35:34;;;;;;;6.30;2.33;;;;;;;;;;5033695;28;20120;-68
2021/09/14 10:38:05;;;;;;;10.43;2.65;;;;;;;;;;5033700;28;20072;-67
2021/09/14 10:40:37;;;;;;;7.35;2.03;;;;;;;;;;5033759;28;20092;-67
2021/09/14 10:43:03;;;;;;;4.88;2.33;;;;;;;;;;5033891;28;20024;-67
2021/09/14 10:45:39;;;;;;;5.20;2.63;;;;;;;;;;5034704;28;20048;-68
2021/09/14 10:48:06;;;;;;;4.40;2.55;;;;;;;;;;5034233;28;20505;-68
2021/09/14 10:50:32;;;;;;;6.00;2.40;;;;;;;;;;5033904;28;20032;-67
2021/09/14 10:53:00;;;;;;;4.00;2.42;;;;;;;;;;5033391;28;20378;-68
2021/09/14 10:55:26;;;;;;;9.45;2.88;;;;;;;;;;5032714;28;20522;-68
2021/09/14 10:57:58;;;;;;;8.15;2.80;;;;;;;;;;5032780;28;20021;-68
2021/09/14 11:00:32;;;;;;;7.05;2.70;;;;;;;;;;5032906;28;20021;-69
2021/09/14 11:02:59;;;;;;;3.60;2.10;;;;;;;;;;5032694;28;20649;-68
2021/09/14 11:05:32;;;;;;;10.65;2.97;;;;;;;;;;5030467;28;20117;-67
2021/09/14 11:07:59;;;;;;;3.60;1.98;;;;;;;;;;5031139;28;20521;-69
2021/09/14 11:10:27;;;;;;;5.00;2.30;;;;;;;;;;5029065;28;20032;-69
2021/09/14 11:12:53;;;;;;;9.43;2.88;;;;;;;;;;5031241;28;20025;-68
2021/09/14 11:15:19;;;;;;;4.47;2.25;;;;;;;;;;5032723;28;20061;-69
2021/09/14 11:17:48;;;;;;;5.47;2.10;;;;;;;;;;5033745;28;20090;-70
2021/09/14 11:20:18;;;;;;;4.38;1.90;;;;;;;;;;5032761;28;20100;-69
2021/09/14 11:22:44;;;;;;;5.78;2.67;;;;;;;;;;5030942;28;20021;-68
2021/09/14 11:25:18;;;;;;;5.75;2.10;;;;;;;;;;5030968;28;20029;-69
2021/09/14 11:27:54;;;;;;;4.57;2.30;;;;;;;;;;5032754;28;20029;-68
2021/09/14 11:30:21;;;;;;;5.00;2.30;;;;;;;;;;5031935;28;20044;-68
2021/09/14 11:32:47;;;;;;;9.10;2.38;;;;;;;;;;5032397;28;20029;-67
2021/09/14 11:35:14;;;;;;;6.97;2.60;;;;;;;;;;5032292;28;20108;-67
2021/09/14 11:37:40;;;;;;;3.72;2.03;;;;;;;;;;5031517;28;20056;-68
2021/09/14 11:40:16;;;;;;;4.45;1.85;;;;;;;;;;5033535;28;20028;-68
2021/09/14 11:42:51;;;;;;;3.30;1.80;;;;;;;;;;5032183;28;20026;-67
2021/09/14 11:45:17;;;;;;;5.60;2.25;;;;;;;;;;5027247;28;20068;-67
2021/09/14 11:47:43;;;;;;;3.20;1.95;;;;;;;;;;5031771;28;20064;-67
2021/09/14 11:50:10;;;;;;;4.18;2.05;;;;;;;;;;5030909;28;20030;-67
2021/09/14 11:52:37;;;;;;;4.75;2.00;;;;;;;;;;5028559;28;20387;-66
2021/09/14 11:55:09;;;;;;;5.38;2.05;;;;;;;;;;5032886;28;20030;-66
2021/09/14 11:57:35;;;;;;;5.45;2.53;;;;;;;;;;5031167;28;20075;-67
2021/09/14 12:00:12;;;;;;;3.30;1.90;;;;;;;;;;5030545;28;20029;-67
2021/09/14 12:02:48;;;;;;;4.40;1.92;;;;;;;;;;5030778;28;20628;-67
2021/09/14 12:05:19;;;;;;;3.80;1.75;;;;;;;;;;5031463;28;20099;-67
2021/09/14 12:07:54;;;;;;;3.92;2.00;;;;;;;;;;5030815;28;20018;-68
2021/09/14 12:10:20;;;;;;;12.27;2.90;;;;;;;;;;5032504;28;20171;-67
2021/09/14 12:12:53;;;;;;;7.25;1.92;;;;;;;;;;5032680;28;20022;-67
2021/09/14 12:15:20;;;;;;;5.07;2.10;;;;;;;;;;5031304;28;20149;-67
2021/09/14 12:17:47;;;;;;;5.05;2.03;;;;;;;;;;5032977;28;20026;-66
2021/09/14 12:20:13;;;;;;;5.32;1.90;;;;;;;;;;5032274;28;20084;-66
2021/09/14 12:22:39;;;;;;;6.63;2.20;;;;;;;;;;5031986;28;20112;-67
2021/09/14 12:25:06;;;;;;;4.00;2.10;;;;;;;;;;5031871;28;20367;-66
2021/09/14 12:27:33;;;;;;;5.68;2.17;;;;;;;;;;5031288;28;20025;-68
2021/09/14 12:29:59;;;;;;;6.60;2.20;;;;;;;;;;5031956;28;20107;-67
2021/09/14 12:32:26;;;;;;;5.18;2.55;;;;;;;;;;5032472;28;20096;-67
2021/09/14 12:34:53;;;;;;;4.65;1.80;;;;;;;;;;5032185;28;20026;-67
2021/09/14 12:37:19;;;;;;;2.67;1.52;;;;;;;;;;5032552;28;20034;-68
2021/09/14 12:39:45;;;;;;;4.65;2.30;;;;;;;;;;5030928;28;20021;-65
2021/09/14 12:42:11;;;;;;;4.25;2.20;;;;;;;;;;5032263;28;20377;-67
2021/09/14 12:44:37;;;;;;;3.92;1.73;;;;;;;;;;5031589;28;20056;-66
2021/09/14 12:47:03;;;;;;;3.47;1.80;;;;;;;;;;5032434;28;20025;-66
2021/09/14 12:49:31;;;;;;;4.50;1.63;;;;;;;;;;5032975;28;20474;-67
2021/09/14 12:51:57;;;;;;;4.75;1.83;;;;;;;;;;5032875;28;20026;-68
2021/09/14 12:54:23;;;;;;;6.00;2.35;;;;;;;;;;5031376;28;20075;-67
2021/09/14 12:56:49;;;;;;;5.75;2.67;;;;;;;;;;5032616;28;20038;-68
2021/09/14 12:59:15;;;;;;;4.20;2.17;;;;;;;;;;5030010;28;20021;-67
2021/09/14 13:01:42;;;;;;;3.40;1.77;;;;;;;;;;5033122;28;20029;-68
2021/09/14 13:04:08;;;;;;;2.67;1.50;;;;;;;;;;5036041;28;20025;-70
2021/09/14 13:06:34;;;;;;;2.75;1.67;;;;;;;;;;5035206;28;20033;-66
2021/09/14 13:09:00;;;;;;;2.38;1.60;;;;;;;;;;5033998;28;20597;-66
2021/09/14 13:11:26;;;;;;;3.65;1.90;;;;;;;;;;5034634;28;20509;-68
2021/09/14 13:16:37;;;;;;;3.28;1.52;;;;;;;;;;5035757;28;20103;-68
2021/09/14 13:19:03;;;;;;;3.60;1.40;;;;;;;;;;5035018;28;20389;-67
2021/09/14 13:21:29;;;;;;;3.80;1.55;;;;;;;;;;5036281;28;20033;-69
2021/09/14 13:23:55;;;;;;;3.78;1.67;;;;;;;;;;5035889;28;20404;-67
2021/09/14 13:26:22;;;;;;;5.18;1.52;;;;;;;;;;5034821;28;20040;-69
2021/09/14 13:28:49;;;;;;;11.52;4.25;;;;;;;;;;5034400;28;20096;-70
2021/09/14 13:31:15;;;;;;;3.85;2.20;;;;;;;;;;5036235;28;20370;-71
2021/09/14 13:33:41;;;;;;;3.85;1.92;;;;;;;;;;5036099;28;20095;-70
2021/09/14 13:36:08;;;;;;;3.38;1.60;;;;;;;;;;5034398;28;20044;-70
2021/09/14 13:38:34;;;;;;;3.08;1.50;;;;;;;;;;5036063;28;20528;-69
2021/09/14 13:41:09;;;;;;;3.80;1.85;;;;;;;;;;5035999;28;20040;-69
2021/09/14 13:46:13;;;;;;;4.68;2.40;;;;;;;;;;5035990;28;20053;-68
2021/09/14 13:48:40;;;;;;;;;;;;;;;;;;5036473;28;20164;-69
2021/09/14 13:51:06;;;;;;;3.28;1.40;;;;;;;;;;5035439;28;19905;-69
2021/09/14 13:53:33;;;;;;;5.03;2.33;;;;;;;;;;5035891;28;20104;-69
2021/09/14 13:56:00;;;;;;;4.40;1.90;;;;;;;;;;5035541;28;20034;-70
2021/09/14 13:58:26;;;;;;;2.60;1.30;;;;;;;;;;5035406;28;20014;-69
2021/09/14 14:00:52;;;;;;;2.78;1.83;;;;;;;;;;5034297;28;20563;-69
2021/09/14 14:03:18;;;;;;;6.68;1.35;;;;;;;;;;5035499;28;20060;-70
2021/09/14 14:05:45;;;;;;;7.95;3.80;;;;;;;;;;5034881;28;20414;-70
2021/09/14 14:08:11;;;;;;;4.50;2.30;;;;;;;;;;5032521;28;20167;-69
2021/09/14 14:10:37;;;;;;;6.43;2.42;;;;;;;;;;5035100;28;20022;-69
2021/09/14 14:13:03;;;;;;;3.88;2.05;;;;;;;;;;5033455;28;20029;-69
2021/09/14 14:15:30;;;;;;;4.50;1.90;;;;;;;;;;5034917;28;20501;-69
2021/09/14 14:17:56;;;;;;;4.18;1.75;;;;;;;;;;5034033;28;20386;-69
2021/09/14 14:20:22;;;;;;;4.68;1.70;;;;;;;;;;5034579;28;20053;-68
2021/09/14 14:22:48;;;;;;;3.78;1.85;;;;;;;;;;5033705;28;20049;-69
2021/09/14 14:25:14;;;;;;;4.22;2.10;;;;;;;;;;5034203;28;20022;-69
2021/09/14 14:27:40;;;;;;;5.38;2.35;;;;;;;;;;5033456;28;20080;-70
2021/09/14 14:30:07;;;;;;;10.68;2.50;;;;;;;;;;5034738;28;20025;-70
2021/09/14 14:32:33;;;;;;;5.07;2.00;;;;;;;;;;5033202;28;20022;-70
2021/09/14 14:34:59;;;;;;;3.92;2.10;;;;;;;;;;5034728;28;20114;-70
2021/09/14 14:37:25;;;;;;;4.60;2.10;;;;;;;;;;5035152;28;20033;-70
2021/09/14 14:39:51;;;;;;;4.00;1.70;;;;;;;;;;5034491;28;20028;-68
2021/09/14 14:42:18;;;;;;;3.58;1.60;;;;;;;;;;5034848;28;20029;-70
2021/09/14 14:44:44;;;;;;;3.72;1.77;;;;;;;;;;5034832;28;20028;-70
2021/09/14 14:47:10;;;;;;;4.45;2.05;;;;;;;;;;5034369;28;20029;-70
2021/09/14 14:49:36;;;;;;;2.53;1.50;;;;;;;;;;5034879;28;20052;-68
2021/09/14 14:52:02;;;;;;;2.95;1.67;;;;;;;;;;5033503;28;20021;-72
2021/09/14 14:54:29;;;;;;;3.67;1.67;;;;;;;;;;5034297;28;20041;-69
2021/09/14 14:56:55;;;;;;;4.28;1.73;;;;;;;;;;5033331;28;20505;-70
2021/09/14 14:59:21;;;;;;;6.50;2.30;;;;;;;;;;5034662;28;20030;-70
2021/09/14 15:01:48;;;;;;;6.13;2.10;;;;;;;;;;5034262;28;20030;-69
2021/09/14 15:04:18;;;;;;;4.05;1.90;;;;;;;;;;5034554;28;20025;-70
2021/09/14 15:06:44;;;;;;;7.18;2.10;;;;;;;;;;5034394;28;20022;-70
2021/09/14 15:09:11;;;;;;;10.07;3.00;;;;;;;;;;5033939;28;20032;-70
2021/09/14 15:11:37;;;;;;;4.95;2.30;;;;;;;;;;5034481;28;20029;-71
2021/09/14 15:14:03;;;;;;;4.20;1.75;;;;;;;;;;5034328;28;20490;-70
2021/09/14 15:16:29;;;;;;;5.15;1.92;;;;;;;;;;5033621;28;20136;-68
2021/09/14 15:18:55;;;;;;;6.95;2.30;;;;;;;;;;5034483;28;20423;-70
2021/09/14 15:21:22;;;;;;;4.00;1.80;;;;;;;;;;5034176;28;20033;-70
2021/09/14 15:23:48;;;;;;;3.20;1.65;;;;;;;;;;5033671;28;20083;-70
2021/09/14 15:26:14;;;;;;;3.90;1.67;;;;;;;;;;5033498;28;20025;-69
2021/09/14 15:28:40;;;;;;;4.40;1.80;;;;;;;;;;5033559;28;20014;-70
2021/09/14 15:31:06;;;;;;;3.40;1.75;;;;;;;;;;5033984;28;20025;-69
2021/09/14 15:33:33;;;;;;;5.35;1.70;;;;;;;;;;5033880;28;20018;-70
2021/09/14 15:35:59;;;;;;;5.60;1.75;;;;;;;;;;5033386;28;20489;-70
2021/09/14 15:38:30;;;;;;;4.07;1.42;;;;;;;;;;5033773;28;20097;-69
2021/09/14 15:41:00;;;;;;;3.55;1.58;;;;;;;;;;5033852;28;20156;-70
2021/09/14 15:43:29;;;;;;;3.38;1.88;;;;;;;;;;5033488;28;20040;-70
2021/09/14 15:45:56;;;;;;;7.18;2.20;;;;;;;;;;5033734;28;20482;-70
2021/09/14 15:48:26;;;;;;;3.78;2.08;;;;;;;;;;5033665;28;20021;-70
2021/09/14 15:50:53;;;;;;;5.45;2.17;;;;;;;;;;5033294;28;20032;-70
2021/09/14 15:53:20;;;;;;;6.65;2.47;;;;;;;;;;5032300;28;20025;-70
2021/09/14 15:55:47;;;;;;;2.75;1.77;;;;;;;;;;5033701;28;20036;-70
2021/09/14 15:58:13;;;;;;;7.18;2.40;;;;;;;;;;5033160;28;20036;-70
2021/09/14 16:00:39;;;;;;;3.88;1.85;;;;;;;;;;5032283;28;20029;-71
2021/09/14 16:03:05;;;;;;;5.25;2.60;;;;;;;;;;5033647;28;20429;-69
2021/09/14 16:05:32;;;;;;;6.55;1.90;;;;;;;;;;5033075;28;20109;-69
2021/09/14 16:07:59;;;;;;;6.25;1.90;;;;;;;;;;5032076;28;20022;-70
2021/09/14 16:10:25;;;;;;;8.40;2.17;;;;;;;;;;5033697;28;20037;-69
2021/09/14 16:12:52;;;;;;;7.25;2.55;;;;;;;;;;5032976;28;20040;-70
2021/09/14 16:15:18;;;;;;;3.67;1.90;;;;;;;;;;5032981;28;20096;-70
2021/09/14 16:17:44;;;;;;;7.68;2.85;;;;;;;;;;5033487;28;20025;-70
2021/09/14 16:20:11;;;;;;;6.18;2.53;;;;;;;;;;5032285;28;20025;-70
2021/09/14 16:22:37;;;;;;;6.45;2.08;;;;;;;;;;5033318;28;20026;-69
2021/09/14 16:25:04;;;;;;;5.30;2.22;;;;;;;;;;5031631;28;20073;-70
2021/09/14 16:27:30;;;;;;;5.40;2.80;;;;;;;;;;5033265;28;20467;-69
2021/09/14 16:29:57;;;;;;;4.95;2.30;;;;;;;;;;5033247;28;20036;-69
2021/09/14 16:32:23;;;;;;;5.45;2.28;;;;;;;;;;5032823;28;20026;-69
2021/09/14 16:34:49;;;;;;;5.03;2.38;;;;;;;;;;5033272;28;20045;-70
2021/09/14 16:37:16;;;;;;;8.77;2.40;;;;;;;;;;5034857;28;20033;-68
2021/09/14 16:39:52;;;;;;;7.95;2.50;;;;;;;;;;5036676;28;20029;-69
2021/09/14 16:42:18;;;;;;;4.60;2.80;;;;;;;;;;5037488;28;20111;-70
2021/09/14 16:44:48;;;;;;;5.45;2.97;;;;;;;;;;5037370;28;20071;-69
2021/09/14 16:47:15;;;;;;;6.72;2.60;;;;;;;;;;5036670;28;20028;-69
2021/09/14 16:49:42;;;;;;;8.80;5.13;;;;;;;;;;5037084;28;20026;-69
2021/09/14 16:52:09;;;;;;;6.28;3.58;;;;;;;;;;5035664;28;20025;-69
2021/09/14 16:54:35;;;;;;;10.20;6.85;;;;;;;;;;5036503;28;20021;-69
2021/09/14 16:57:01;;;;;;;4.53;2.67;;;;;;;;;;5036730;28;20120;-69
2021/09/14 16:59:28;;;;;;;4.78;2.67;;;;;;;;;;5036786;28;20025;-69
2021/09/14 17:01:54;;;;;;;6.25;2.80;;;;;;;;;;5036420;28;20025;-69
2021/09/14 17:04:22;;;;;;;6.82;2.80;;;;;;;;;;5036822;28;20025;-69
2021/09/14 17:06:49;;;;;;;6.68;2.83;;;;;;;;;;5036631;28;20017;-69